createdAt,value
2022-09-11T00:01:47.702Z,10.38
2022-09-11T00:04:16.181Z,10.50
2022-09-11T00:06:44.368Z,8.63
2022-09-11T00:09:12.699Z,11.63
2022-09-11T00:11:43.181Z,8.47
2022-09-11T00:14:14.533Z,12.52
2022-09-11T00:16:46.420Z,8.75
2022-09-11T00:19:20.543Z,11.32
2022-09-11T00:21:50.875Z,10.75
2022-09-11T00:24:19.060Z,10.02
2022-09-11T00:26:48.518Z,9.33
2022-09-11T00:29:16.678Z,9.20
2022-09-11T00:31:44.857Z,10.50
2022-09-11T00:34:13.238Z,8.07
2022-09-11T00:36:44.615Z,10.95
2022-09-11T00:39:14.775Z,9.23
2022-09-11T00:41:46.730Z,8.47
2022-09-11T00:44:18.554Z,8.35
2022-09-11T00:46:54.205Z,8.52
2022-09-11T00:53:38.759Z,11.50
2022-09-11T00:56:10.955Z,10.07
2022-09-11T00:58:43.423Z,7.57
2022-09-11T01:01:17.765Z,7.18
2022-09-11T01:03:45.971Z,6.30
2022-09-11T01:06:15.070Z,10.18
2022-09-11T01:08:43.754Z,6.77
2022-09-11T01:11:30.335Z,8.52
2022-09-11T01:14:16.977Z,6.95
2022-09-11T01:17:01.066Z,7.82
2022-09-11T01:20:00.131Z,6.82
2022-09-11T01:22:57.164Z,10.13
2022-09-11T01:25:43.611Z,7.47
2022-09-11T01:28:30.621Z,8.35
2022-09-11T01:31:06.135Z,8.30
2022-09-11T01:34:07.687Z,6.63
2022-09-11T01:37:00.179Z,8.23
2022-09-11T01:39:34.349Z,7.37
2022-09-11T01:42:07.533Z,8.48
2022-09-11T01:44:55.508Z,8.30
2022-09-11T01:47:26.516Z,10.40
2022-09-11T01:50:04.292Z,9.90
2022-09-11T01:52:43.773Z,9.37
2022-09-11T01:55:17.769Z,10.32
2022-09-11T01:58:08.499Z,9.07
2022-09-11T02:00:46.321Z,7.75
2022-09-11T02:03:27.686Z,6.72
2022-09-11T02:06:06.941Z,10.40
2022-09-11T02:08:54.946Z,10.55
2022-09-11T02:11:25.170Z,11.13
2022-09-11T02:14:25.769Z,9.52
2022-09-11T02:17:25.370Z,15.18
2022-09-11T02:19:55.761Z,14.40
2022-09-11T02:22:25.497Z,11.50
2022-09-11T02:24:54.190Z,10.98
2022-09-11T02:27:34.226Z,10.10
2022-09-11T02:30:02.587Z,13.18
2022-09-11T02:32:37.231Z,11.43
2022-09-11T02:35:07.466Z,13.27
2022-09-11T02:38:11.871Z,11.85
2022-09-11T02:40:54.181Z,13.38
2022-09-11T02:43:41.900Z,11.27
2022-09-11T02:47:06.591Z,15.30
2022-09-11T02:50:04.841Z,13.53
2022-09-11T02:53:02.927Z,17.02
2022-09-11T02:55:45.560Z,10.63
2022-09-11T02:58:24.047Z,10.50
2022-09-11T03:00:54.111Z,15.27
2022-09-11T03:03:22.450Z,10.50
2022-09-11T03:05:52.311Z,14.98
2022-09-11T03:08:21.029Z,12.55
2022-09-11T03:10:50.617Z,12.40
2022-09-11T03:13:18.730Z,10.73
2022-09-11T03:15:48.180Z,13.83
2022-09-11T03:18:17.475Z,12.57
2022-09-11T03:20:50.755Z,10.98
2022-09-11T03:23:21.927Z,15.10
2022-09-11T03:25:51.546Z,15.73
2022-09-11T03:28:19.908Z,16.10
2022-09-11T03:30:51.230Z,13.98
2022-09-11T03:33:19.755Z,10.85
2022-09-11T03:35:54.059Z,18.83
2022-09-11T03:38:25.036Z,12.40
2022-09-11T03:40:56.036Z,14.60
2022-09-11T03:43:25.953Z,11.57
2022-09-11T03:45:54.181Z,13.30
2022-09-11T03:48:22.281Z,12.20
2022-09-11T03:50:50.302Z,17.27
2022-09-11T03:53:18.920Z,15.60
2022-09-11T03:55:47.898Z,13.82
2022-09-11T03:58:19.569Z,11.50
2022-09-11T04:00:48.678Z,12.38
2022-09-11T04:03:17.727Z,13.05
2022-09-11T04:06:01.875Z,15.80
2022-09-11T04:08:34.095Z,12.53
2022-09-11T04:11:07.256Z,15.18
2022-09-11T04:13:39.563Z,16.20
2022-09-11T04:16:19.591Z,12.93
2022-09-11T04:18:54.768Z,16.52
2022-09-11T04:21:25.005Z,15.67
2022-09-11T04:23:56.853Z,13.13
2022-09-11T04:26:29.823Z,16.25
2022-09-11T04:29:06.357Z,15.63
2022-09-11T04:31:36.994Z,12.80
2022-09-11T04:34:05.645Z,10.20
2022-09-11T04:36:37.626Z,11.77
2022-09-11T04:39:07.956Z,13.38
2022-09-11T04:41:35.991Z,12.57
2022-09-11T04:44:07.688Z,9.13
2022-09-11T04:46:43.510Z,13.80
2022-09-11T04:49:12.315Z,15.73
2022-09-11T04:51:41.167Z,14.93
2022-09-11T04:54:18.392Z,14.20
2022-09-11T04:56:47.186Z,13.43
2022-09-11T04:59:22.680Z,11.53
2022-09-11T05:02:14.324Z,14.20
2022-09-11T05:04:46.570Z,13.85
2022-09-11T05:07:17.350Z,13.18
2022-09-11T05:09:49.346Z,14.10
2022-09-11T05:12:19.210Z,12.03
2022-09-11T05:14:47.311Z,12.77
2022-09-11T05:17:15.333Z,15.43
2022-09-11T05:19:44.826Z,12.35
2022-09-11T05:22:13.026Z,14.10
2022-09-11T05:24:46.821Z,13.27
2022-09-11T05:27:15.095Z,13.50
2022-09-11T05:29:43.070Z,14.45
2022-09-11T05:32:14.251Z,13.27
2022-09-11T05:34:42.971Z,14.45
2022-09-11T05:37:14.797Z,14.17
2022-09-11T05:39:46.967Z,13.60
2022-09-11T05:42:17.096Z,14.43
2022-09-11T05:44:50.905Z,11.85
2022-09-11T05:47:19.231Z,15.52
2022-09-11T05:49:50.959Z,11.87
2022-09-11T05:52:19.395Z,9.25
2022-09-11T05:54:47.361Z,13.10
2022-09-11T05:57:17.339Z,10.20
2022-09-11T05:59:45.899Z,13.85
2022-09-11T06:02:14.915Z,11.53
2022-09-11T06:04:49.700Z,10.57
2022-09-11T06:07:20.453Z,11.15
2022-09-11T06:09:51.035Z,11.80
2022-09-11T06:12:19.529Z,12.73
2022-09-11T06:14:49.094Z,9.63
2022-09-11T06:17:17.791Z,8.27
2022-09-11T06:19:46.039Z,13.18
2022-09-11T06:22:15.399Z,11.10
2022-09-11T06:24:46.113Z,8.48
2022-09-11T06:27:17.509Z,9.67
2022-09-11T06:29:49.511Z,12.50
2022-09-11T06:32:20.353Z,9.82
2022-09-11T06:34:48.741Z,9.43
2022-09-11T06:37:16.639Z,12.85
2022-09-11T06:39:44.724Z,13.60
2022-09-11T06:42:20.992Z,8.65
2022-09-11T06:44:52.426Z,7.57
2022-09-11T06:47:21.638Z,9.25
2022-09-11T06:49:49.864Z,9.90
2022-09-11T06:52:39.450Z,11.27
2022-09-11T06:55:24.292Z,8.23
2022-09-11T06:57:59.037Z,8.32
2022-09-11T07:00:30.432Z,8.40
2022-09-11T07:02:58.920Z,9.75
2022-09-11T07:05:28.263Z,11.37
2022-09-11T07:07:57.518Z,9.50
2022-09-11T07:10:30.146Z,10.05
2022-09-11T07:13:00.960Z,9.70
2022-09-11T07:15:29.243Z,7.25
2022-09-11T07:17:59.396Z,9.83
2022-09-11T07:20:27.886Z,9.32
2022-09-11T07:22:55.906Z,7.97
2022-09-11T07:25:26.270Z,10.68
2022-09-11T07:27:55.390Z,9.60
2022-09-11T07:30:24.150Z,9.68
2022-09-11T07:32:56.194Z,8.63
2022-09-11T07:35:24.702Z,9.38
2022-09-11T07:37:54.292Z,11.00
2022-09-11T07:40:27.078Z,8.98
2022-09-11T07:42:58.097Z,9.05
2022-09-11T07:45:28.948Z,10.27
2022-09-11T07:48:00.396Z,11.23
2022-09-11T07:50:28.427Z,10.35
2022-09-11T07:52:56.509Z,10.95
2022-09-11T07:55:24.975Z,13.27
2022-09-11T07:57:54.546Z,8.40
2022-09-11T08:00:23.986Z,9.68
2022-09-11T08:03:04.786Z,8.02
2022-09-11T08:05:36.828Z,8.77
2022-09-11T08:08:06.657Z,7.95
2022-09-11T08:10:41.437Z,7.63
2022-09-11T08:13:09.845Z,6.25
2022-09-11T08:15:46.065Z,8.07
2022-09-11T08:18:14.541Z,9.80
2022-09-11T08:20:42.670Z,8.00
2022-09-11T08:23:11.980Z,8.03
2022-09-11T08:25:42.150Z,11.00
2022-09-11T08:28:11.916Z,8.82
2022-09-11T08:30:40.239Z,9.30
2022-09-11T08:33:10.070Z,8.88
2022-09-11T08:35:39.136Z,6.87
2022-09-11T08:38:07.444Z,10.37
2022-09-11T08:40:40.076Z,8.18
2022-09-11T08:43:24.180Z,7.28
2022-09-11T08:45:59.760Z,13.43
2022-09-11T08:48:36.290Z,9.15
2022-09-11T08:51:05.483Z,7.97
2022-09-11T08:53:34.551Z,8.15
2022-09-11T08:56:09.082Z,9.65
2022-09-11T08:59:05.733Z,8.40
2022-09-11T09:01:53.755Z,8.93
2022-09-11T09:04:52.280Z,6.23
2022-09-11T09:07:45.318Z,8.75
2022-09-11T09:10:29.584Z,7.47
2022-09-11T09:13:36.933Z,7.78
2022-09-11T09:16:07.715Z,8.75
2022-09-11T09:18:44.415Z,7.93
2022-09-11T09:21:20.705Z,8.38
2022-09-11T09:23:56.942Z,8.60
2022-09-11T09:26:40.431Z,9.57
2022-09-11T09:29:24.248Z,6.85
2022-09-11T09:32:00.431Z,6.60
2022-09-11T09:34:35.523Z,8.35
2022-09-11T09:37:12.773Z,6.18
2022-09-11T09:39:42.728Z,6.30
2022-09-11T09:42:33.044Z,7.28
2022-09-11T09:45:40.126Z,8.57
2022-09-11T09:48:12.204Z,8.07
2022-09-11T09:50:44.826Z,8.02
2022-09-11T09:53:42.001Z,7.88
2022-09-11T09:56:17.003Z,7.82
2022-09-11T09:59:18.510Z,10.32
2022-09-11T10:01:50.117Z,8.57
2022-09-11T10:04:30.810Z,9.05
2022-09-11T10:07:22.405Z,10.02
2022-09-11T10:09:57.221Z,8.25
2022-09-11T10:12:28.757Z,13.30
2022-09-11T10:15:02.604Z,9.33
2022-09-11T10:17:33.644Z,9.60
2022-09-11T10:20:19.995Z,9.77
2022-09-11T10:22:48.517Z,8.55
2022-09-11T10:25:23.002Z,5.35
2022-09-11T10:28:02.865Z,10.17
2022-09-11T10:30:39.963Z,7.32
2022-09-11T10:33:29.014Z,8.98
2022-09-11T10:35:58.962Z,9.90
2022-09-11T10:38:41.434Z,8.45
2022-09-11T10:41:19.959Z,7.23
2022-09-11T10:44:02.137Z,7.05
2022-09-11T10:46:40.845Z,7.35
2022-09-11T10:49:22.751Z,6.45
2022-09-11T10:52:07.166Z,8.80
2022-09-11T10:55:07.417Z,9.30
2022-09-11T10:57:46.018Z,9.80
2022-09-11T11:00:25.052Z,9.25
2022-09-11T11:03:11.738Z,10.75
2022-09-11T11:06:05.594Z,6.88
2022-09-11T11:08:39.874Z,8.97
2022-09-11T11:11:19.343Z,7.43
2022-09-11T11:14:13.708Z,5.72
2022-09-11T11:17:00.190Z,10.30
2022-09-11T11:19:43.541Z,7.80
2022-09-11T11:22:35.057Z,9.40
2022-09-11T11:25:38.706Z,7.40
2022-09-11T11:28:41.758Z,7.45
2022-09-11T11:31:34.923Z,8.82
2022-09-11T11:34:34.978Z,8.98
2022-09-11T11:37:25.411Z,7.50
2022-09-11T11:40:03.318Z,6.85
2022-09-11T11:42:40.318Z,7.82
2022-09-11T11:45:21.532Z,7.57
2022-09-11T11:47:51.736Z,7.55
2022-09-11T11:50:31.916Z,11.00
2022-09-11T11:53:06.680Z,6.65
2022-09-11T11:56:16.943Z,9.77
2022-09-11T11:58:56.742Z,9.30
2022-09-11T12:01:46.865Z,6.03
2022-09-11T12:04:35.099Z,8.23
2022-09-11T12:07:05.209Z,8.10
2022-09-11T12:09:34.047Z,6.00
2022-09-11T12:12:07.989Z,6.15
2022-09-11T12:14:36.553Z,9.55
2022-09-11T12:17:37.972Z,10.17
2022-09-11T12:20:11.843Z,11.10
2022-09-11T12:22:49.570Z,7.57
2022-09-11T12:25:20.238Z,6.35
2022-09-11T12:27:56.583Z,7.20
2022-09-11T12:30:29.476Z,6.37
2022-09-11T12:33:02.933Z,7.60
2022-09-11T12:35:53.325Z,7.97
2022-09-11T12:38:36.048Z,5.82
2022-09-11T12:41:13.938Z,7.38
2022-09-11T12:43:42.667Z,6.27
2022-09-11T12:46:22.408Z,6.88
2022-09-11T12:49:20.513Z,7.38
2022-09-11T12:51:57.099Z,7.40
2022-09-11T12:54:45.059Z,6.75
2022-09-11T12:57:28.667Z,6.07
2022-09-11T13:00:12.522Z,7.95
2022-09-11T13:02:54.301Z,7.97
2022-09-11T13:05:38.629Z,6.68
2022-09-11T13:08:22.926Z,6.05
2022-09-11T13:10:51.797Z,6.97
2022-09-11T13:13:36.124Z,6.40
2022-09-11T13:16:29.151Z,7.30
2022-09-11T13:19:21.533Z,7.55
2022-09-11T13:21:57.439Z,7.53
2022-09-11T13:24:27.398Z,6.27
2022-09-11T13:27:03.007Z,6.95
2022-09-11T13:29:37.188Z,6.03
2022-09-11T13:32:14.280Z,6.57
2022-09-11T13:34:49.173Z,6.68
2022-09-11T13:37:37.153Z,4.60
2022-09-11T13:40:16.666Z,8.32
2022-09-11T13:42:45.181Z,8.35
2022-09-11T13:45:18.616Z,7.18
2022-09-11T13:47:47.138Z,6.85
2022-09-11T13:50:18.318Z,7.57
2022-09-11T13:52:48.022Z,7.30
2022-09-11T13:55:27.314Z,6.20
2022-09-11T13:57:57.967Z,7.18
2022-09-11T14:00:46.416Z,7.15
2022-09-11T14:03:32.005Z,8.00
2022-09-11T14:06:02.231Z,8.77
2022-09-11T14:08:37.343Z,8.65
2022-09-11T14:11:32.980Z,8.88
2022-09-11T14:14:14.911Z,8.70
2022-09-11T14:16:53.615Z,6.47
2022-09-11T14:19:31.436Z,9.18
2022-09-11T14:22:02.992Z,6.68
2022-09-11T14:24:35.483Z,5.45
2022-09-11T14:27:25.644Z,9.00
2022-09-11T14:29:55.931Z,5.70
2022-09-11T14:32:38.241Z,5.57
2022-09-11T14:35:08.991Z,5.30
2022-09-11T14:37:46.102Z,6.13
2022-09-11T14:40:21.593Z,6.35
2022-09-11T14:42:50.171Z,7.90
2022-09-11T14:45:24.996Z,5.72
2022-09-11T14:47:53.750Z,8.88
2022-09-11T14:50:22.144Z,9.13
2022-09-11T14:52:50.188Z,10.50
2022-09-11T14:55:20.471Z,6.57
2022-09-11T14:57:48.613Z,6.45
2022-09-11T15:00:19.705Z,6.68
2022-09-11T15:02:48.138Z,6.38
2022-09-11T15:05:19.729Z,7.68
2022-09-11T15:07:48.984Z,8.83
2022-09-11T15:10:16.988Z,7.32
2022-09-11T15:12:45.188Z,8.13
2022-09-11T15:15:17.481Z,8.23
2022-09-11T15:17:46.767Z,11.30
2022-09-11T15:20:14.654Z,9.90
2022-09-11T15:22:43.107Z,8.02
2022-09-11T15:25:11.851Z,7.78
2022-09-11T15:27:39.986Z,8.02
2022-09-11T15:30:12.171Z,7.63
2022-09-11T15:32:40.139Z,8.83
2022-09-11T15:35:08.479Z,5.00
2022-09-11T15:37:36.599Z,6.13
2022-09-11T15:40:05.039Z,8.65
2022-09-11T15:42:39.702Z,9.75
2022-09-11T15:45:09.122Z,8.87
2022-09-11T15:47:37.212Z,7.07
2022-09-11T15:50:06.550Z,8.73
2022-09-11T15:52:36.478Z,7.10
2022-09-11T15:55:05.532Z,5.90
2022-09-11T15:57:35.116Z,8.07
2022-09-11T16:00:04.752Z,7.88
2022-09-11T16:02:39.921Z,6.10
2022-09-11T16:05:08.176Z,6.25
2022-09-11T16:07:36.303Z,7.10
2022-09-11T16:10:04.877Z,10.63
2022-09-11T16:12:34.655Z,6.55
2022-09-11T16:15:02.949Z,5.18
2022-09-11T16:17:32.784Z,9.57
2022-09-11T16:20:00.953Z,5.93
2022-09-11T16:22:31.809Z,8.17
2022-09-11T16:24:59.936Z,8.98
2022-09-11T16:27:28.525Z,10.02
2022-09-11T16:30:26.217Z,6.32
2022-09-11T16:32:45.714Z,6.35
2022-09-11T16:35:14.557Z,6.40
2022-09-11T16:37:42.681Z,9.38
2022-09-11T16:40:10.903Z,7.07
2022-09-11T16:42:39.121Z,15.20
2022-09-11T16:45:07.884Z,8.40
2022-09-11T16:47:36.021Z,9.60
2022-09-11T16:50:08.218Z,9.00
2022-09-11T16:52:37.526Z,6.38
2022-09-11T16:55:10.106Z,11.32
2022-09-11T16:57:39.462Z,9.50
2022-09-11T17:00:10.517Z,8.17
2022-09-11T17:02:38.652Z,10.07
2022-09-11T17:05:08.554Z,13.30
2022-09-11T17:07:37.384Z,7.82
2022-09-11T17:10:05.625Z,8.98
2022-09-11T17:12:33.873Z,12.50
2022-09-11T17:15:02.492Z,9.88
2022-09-11T17:17:31.933Z,8.43
2022-09-11T17:20:00.066Z,8.73
2022-09-11T17:22:28.308Z,8.65
2022-09-11T17:24:56.536Z,8.83
2022-09-11T17:27:25.178Z,8.40
2022-09-11T17:29:54.122Z,9.63
2022-09-11T17:32:28.291Z,9.48
2022-09-11T17:35:00.425Z,8.23
2022-09-11T17:37:28.501Z,12.30
2022-09-11T17:39:58.950Z,9.70
2022-09-11T17:42:28.289Z,11.63
2022-09-11T17:44:56.883Z,9.82
2022-09-11T17:47:25.905Z,12.85
2022-09-11T17:49:54.191Z,10.57
2022-09-11T17:52:22.782Z,11.00
2022-09-11T17:54:50.984Z,9.88
2022-09-11T17:57:19.217Z,12.70
2022-09-11T17:59:53.449Z,8.23
2022-09-11T18:02:21.859Z,10.10
2022-09-11T18:04:50.964Z,9.17
2022-09-11T18:07:19.601Z,10.07
2022-09-11T18:09:47.695Z,10.27
2022-09-11T18:12:16.311Z,10.45
2022-09-11T18:14:44.734Z,10.10
2022-09-11T18:17:12.836Z,10.53
2022-09-11T18:19:41.009Z,8.63
2022-09-11T18:22:09.848Z,9.07
2022-09-11T18:24:39.858Z,10.90
2022-09-11T18:27:09.829Z,11.20
2022-09-11T18:29:39.948Z,12.03
2022-09-11T18:32:09.891Z,10.93
2022-09-11T18:34:38.681Z,12.63
2022-09-11T18:37:08.565Z,11.32
2022-09-11T18:39:37.678Z,9.93
2022-09-11T18:42:07.428Z,7.50
2022-09-11T18:44:35.794Z,8.85
2022-09-11T18:47:03.867Z,10.38
2022-09-11T18:49:32.419Z,9.93
2022-09-11T18:52:00.576Z,9.65
2022-09-11T18:54:30.628Z,13.93
2022-09-11T18:57:00.290Z,8.85
2022-09-11T18:59:28.415Z,12.25
2022-09-11T19:01:56.628Z,10.98
2022-09-11T19:04:24.960Z,13.43
2022-09-11T19:06:55.945Z,10.13
2022-09-11T19:09:24.173Z,15.43
2022-09-11T19:11:54.327Z,11.43
2022-09-11T19:14:22.616Z,11.77
2022-09-11T19:16:53.539Z,9.88
2022-09-11T19:19:22.264Z,10.10
2022-09-11T19:21:50.341Z,11.73
2022-09-11T19:24:23.352Z,13.05
2022-09-11T19:26:53.785Z,11.88
2022-09-11T19:29:23.351Z,11.40
2022-09-11T19:31:53.341Z,10.63
2022-09-11T19:34:24.494Z,15.18
2022-09-11T19:36:52.828Z,12.95
2022-09-11T19:39:22.341Z,10.15
2022-09-11T19:41:51.071Z,14.00
2022-09-11T19:44:20.549Z,11.53
2022-09-11T19:46:50.358Z,9.38
2022-09-11T19:49:18.525Z,10.27
2022-09-11T19:51:46.527Z,11.85
2022-09-11T19:54:15.152Z,13.00
2022-09-11T19:56:45.090Z,13.57
2022-09-11T19:59:15.007Z,9.50
2022-09-11T20:01:43.817Z,11.07
2022-09-11T20:04:13.927Z,10.75
2022-09-11T20:12:00.809Z,9.85
2022-09-11T20:14:30.435Z,10.50
2022-09-11T20:17:00.414Z,9.00
2022-09-11T20:19:29.300Z,10.13
2022-09-11T20:21:57.481Z,10.83
2022-09-11T20:24:31.177Z,8.35
2022-09-11T20:27:00.586Z,11.32
2022-09-11T20:29:28.879Z,10.00
2022-09-11T20:32:00.514Z,11.10
2022-09-11T20:34:30.546Z,8.40
2022-09-11T20:37:01.517Z,13.48
2022-09-11T20:39:29.931Z,10.45
2022-09-11T20:41:58.326Z,12.35
2022-09-11T20:44:28.380Z,10.85
2022-09-11T20:46:56.927Z,11.23
2022-09-11T20:49:25.179Z,13.25
2022-09-11T20:51:53.484Z,9.55
2022-09-11T20:54:21.453Z,10.93
2022-09-11T20:56:49.476Z,10.18
2022-09-11T20:59:18.036Z,12.10
2022-09-11T21:01:49.749Z,15.10
2022-09-11T21:04:18.316Z,14.55
2022-09-11T21:06:48.007Z,13.15
2022-09-11T21:09:16.826Z,13.57
2022-09-11T21:11:45.310Z,10.93
2022-09-11T21:14:14.771Z,12.30
2022-09-11T21:16:43.193Z,9.45
2022-09-11T21:19:11.441Z,9.50
2022-09-11T21:21:40.538Z,13.82
2022-09-11T21:24:12.159Z,11.63
2022-09-11T21:26:41.475Z,11.18
2022-09-11T21:29:12.732Z,12.73
2022-09-11T21:31:41.114Z,14.35
2022-09-11T21:34:10.106Z,9.70
2022-09-11T21:36:38.505Z,12.83
2022-09-11T21:39:06.657Z,11.13
2022-09-11T21:41:35.170Z,9.18
2022-09-11T21:44:03.787Z,9.55
2022-09-11T21:46:32.170Z,12.98
2022-09-11T21:49:00.505Z,13.83
2022-09-11T21:51:28.744Z,11.40
2022-09-11T21:53:59.523Z,13.75
2022-09-11T21:56:32.034Z,8.88
2022-09-11T21:59:01.227Z,6.93
2022-09-11T22:01:29.759Z,9.87
2022-09-11T22:04:00.729Z,11.68
2022-09-11T22:06:30.002Z,8.18
2022-09-11T22:08:58.114Z,11.70
2022-09-11T22:11:27.012Z,12.02
2022-09-11T22:13:55.553Z,9.33
2022-09-11T22:16:23.880Z,12.33
2022-09-11T22:18:53.505Z,13.25
2022-09-11T22:21:22.259Z,13.02
2022-09-11T22:23:50.555Z,11.68
2022-09-11T22:26:21.640Z,11.77
2022-09-11T22:28:49.909Z,11.87
2022-09-11T22:31:21.632Z,13.85
2022-09-11T22:33:50.005Z,11.82
2022-09-11T22:36:26.426Z,11.43
2022-09-11T22:38:55.038Z,12.43
2022-09-11T22:41:23.553Z,13.63
2022-09-11T22:43:52.035Z,10.57
2022-09-11T22:46:21.366Z,10.27
2022-09-11T22:48:50.204Z,14.35
2022-09-11T22:51:18.234Z,14.52
2022-09-11T22:53:47.226Z,12.97
2022-09-11T22:56:15.349Z,15.90
2022-09-11T22:58:43.620Z,16.52
2022-09-11T23:01:14.202Z,13.85
2022-09-11T23:03:42.317Z,9.95
2022-09-11T23:06:30.346Z,14.07
2022-09-11T23:09:01.030Z,12.65
2022-09-11T23:11:30.012Z,11.63
2022-09-11T23:13:58.263Z,14.07
2022-09-11T23:16:28.355Z,11.95
2022-09-11T23:19:03.946Z,12.17
2022-09-11T23:21:33.721Z,11.32
2022-09-11T23:24:02.286Z,13.55
2022-09-11T23:26:31.301Z,11.82
2022-09-11T23:28:59.546Z,12.13
2022-09-11T23:31:30.455Z,11.83
2022-09-11T23:34:02.113Z,13.75
2022-09-11T23:36:31.508Z,11.95
2022-09-11T23:39:00.034Z,14.10
2022-09-11T23:41:29.136Z,14.40
2022-09-11T23:43:57.097Z,11.73
2022-09-11T23:46:28.137Z,12.85
2022-09-11T23:48:56.361Z,10.48
2022-09-11T23:51:24.454Z,12.13
2022-09-11T23:53:55.211Z,13.27
2022-09-11T23:56:23.370Z,10.67
2022-09-11T23:58:51.906Z,11.88
